createdAt,value
2022-12-14T00:01:38.256Z,9.97
2022-12-14T00:04:05.519Z,9.00
2022-12-14T00:06:33.660Z,9.23
2022-12-14T00:09:03.186Z,9.57
2022-12-14T00:11:31.995Z,9.90
2022-12-14T00:14:01.275Z,9.07
2022-12-14T00:16:31.004Z,9.27
2022-12-14T00:18:59.989Z,10.80
2022-12-14T00:21:27.581Z,10.60
2022-12-14T00:23:55.514Z,10.40
2022-12-14T00:26:31.056Z,9.77
2022-12-14T00:28:59.513Z,10.40
2022-12-14T00:31:26.570Z,10.50
2022-12-14T00:33:54.196Z,9.80
2022-12-14T00:36:21.891Z,11.37
2022-12-14T00:38:48.985Z,10.00
2022-12-14T00:41:15.993Z,10.00
2022-12-14T00:43:43.043Z,10.13
2022-12-14T00:46:09.993Z,9.97
2022-12-14T00:48:37.192Z,9.77
2022-12-14T00:51:04.294Z,10.03
2022-12-14T00:53:31.837Z,10.13
2022-12-14T00:56:05.490Z,10.57
2022-12-14T00:58:32.589Z,10.43
2022-12-14T01:01:05.711Z,11.63
2022-12-14T01:03:33.511Z,10.37
2022-12-14T01:06:01.189Z,11.40
2022-12-14T01:08:35.786Z,10.67
2022-12-14T01:11:07.785Z,10.77
2022-12-14T01:13:36.058Z,10.50
2022-12-14T01:16:09.426Z,10.27
2022-12-14T01:18:38.264Z,10.50
2022-12-14T01:21:17.720Z,10.47
2022-12-14T01:23:46.004Z,13.20
2022-12-14T01:26:15.019Z,10.33
2022-12-14T01:28:42.506Z,11.00
2022-12-14T01:31:12.125Z,12.10
2022-12-14T01:33:39.204Z,11.83
2022-12-14T01:36:11.354Z,10.87
2022-12-14T01:38:38.373Z,10.80
2022-12-14T01:41:07.885Z,11.17
2022-12-14T01:44:02.066Z,11.40
2022-12-14T01:46:34.422Z,11.20
2022-12-14T01:49:31.300Z,12.13
2022-12-14T01:52:07.367Z,11.10
2022-12-14T01:54:37.484Z,12.00
2022-12-14T01:57:05.033Z,10.57
2022-12-14T01:59:36.634Z,11.37
2022-12-14T02:02:08.163Z,12.07
2022-12-14T02:04:39.773Z,11.30
2022-12-14T02:07:06.719Z,11.13
2022-12-14T02:09:36.768Z,11.57
2022-12-14T02:12:12.378Z,11.50
2022-12-14T02:14:39.715Z,11.33
2022-12-14T02:17:08.564Z,12.17
2022-12-14T02:19:37.397Z,11.20
2022-12-14T02:22:13.478Z,12.63
2022-12-14T02:25:03.433Z,11.67
2022-12-14T02:27:42.600Z,11.47
2022-12-14T02:30:24.832Z,12.53
2022-12-14T02:33:02.067Z,12.17
2022-12-14T02:35:37.927Z,13.07
2022-12-14T02:38:32.624Z,12.97
2022-12-14T02:41:23.986Z,12.97
2022-12-14T02:44:05.124Z,12.73
2022-12-14T02:46:50.386Z,12.97
2022-12-14T02:49:36.021Z,12.23
2022-12-14T02:52:21.730Z,12.83
2022-12-14T02:55:16.977Z,11.77
2022-12-14T02:57:58.217Z,13.07
2022-12-14T03:00:28.945Z,13.00
2022-12-14T03:02:57.574Z,12.03
2022-12-14T03:05:24.567Z,11.17
2022-12-14T03:07:54.906Z,12.47
2022-12-14T03:10:47.366Z,12.17
2022-12-14T03:13:24.638Z,11.40
2022-12-14T03:16:03.682Z,11.40
2022-12-14T03:19:00.998Z,11.30
2022-12-14T03:21:59.609Z,12.87
2022-12-14T03:24:34.109Z,12.07
2022-12-14T03:27:06.156Z,11.37
2022-12-14T03:29:44.282Z,12.43
2022-12-14T03:32:16.604Z,11.17
2022-12-14T03:34:53.447Z,13.03
2022-12-14T03:37:49.971Z,12.30
2022-12-14T03:40:24.624Z,11.57
2022-12-14T03:43:02.913Z,12.37
2022-12-14T03:45:47.421Z,11.87
2022-12-14T03:48:28.928Z,11.70
2022-12-14T03:51:20.387Z,12.77
2022-12-14T03:54:06.289Z,11.67
2022-12-14T03:56:52.986Z,13.00
2022-12-14T03:59:35.499Z,11.23
2022-12-14T04:02:19.576Z,11.37
2022-12-14T04:05:11.897Z,11.70
2022-12-14T04:07:49.656Z,12.43
2022-12-14T04:10:46.097Z,13.17
2022-12-14T04:13:36.275Z,12.40
2022-12-14T04:16:27.921Z,12.17
2022-12-14T04:19:00.667Z,11.40
2022-12-14T04:21:52.374Z,11.30
2022-12-14T04:24:52.434Z,12.07
2022-12-14T04:27:37.543Z,12.23
2022-12-14T04:30:06.888Z,11.97
2022-12-14T04:32:55.998Z,11.10
2022-12-14T04:35:29.119Z,12.40
2022-12-14T04:38:34.544Z,12.47
2022-12-14T04:41:07.101Z,12.43
2022-12-14T04:43:39.063Z,12.17
2022-12-14T04:46:10.055Z,12.93
2022-12-14T04:48:45.442Z,12.57
2022-12-14T04:51:33.672Z,13.30
2022-12-14T04:54:13.663Z,12.70
2022-12-14T04:56:47.626Z,11.57
2022-12-14T04:59:14.808Z,12.40
2022-12-14T05:02:02.866Z,12.37
2022-12-14T05:04:55.242Z,12.67
2022-12-14T05:07:37.126Z,13.20
2022-12-14T05:10:16.486Z,11.83
2022-12-14T05:13:03.085Z,11.90
2022-12-14T05:15:58.439Z,12.90
2022-12-14T05:18:26.105Z,15.98
2022-12-14T05:20:53.159Z,13.27
2022-12-14T05:23:20.174Z,11.73
2022-12-14T05:25:49.003Z,12.37
2022-12-14T05:28:16.478Z,12.00
2022-12-14T05:30:47.111Z,13.03
2022-12-14T05:33:20.836Z,12.13
2022-12-14T05:35:48.000Z,11.93
2022-12-14T05:38:15.175Z,12.27
2022-12-14T05:40:42.146Z,12.70
2022-12-14T05:43:13.571Z,11.93
2022-12-14T05:45:40.537Z,13.20
2022-12-14T05:48:07.671Z,12.53
2022-12-14T05:50:34.680Z,12.10
2022-12-14T05:53:01.787Z,11.60
2022-12-14T05:55:28.755Z,12.67
2022-12-14T05:57:56.397Z,12.83
2022-12-14T06:00:23.339Z,13.67
2022-12-14T06:02:50.527Z,11.97
2022-12-14T06:05:17.529Z,12.40
2022-12-14T06:07:44.681Z,13.63
2022-12-14T06:10:13.881Z,12.97
2022-12-14T06:12:41.245Z,13.57
2022-12-14T06:15:08.634Z,12.80
2022-12-14T06:17:35.802Z,13.33
2022-12-14T06:20:02.758Z,12.17
2022-12-14T06:22:29.692Z,13.90
2022-12-14T06:24:56.631Z,13.20
2022-12-14T06:27:23.581Z,13.53
2022-12-14T06:29:50.567Z,11.53
2022-12-14T06:32:17.502Z,12.77
2022-12-14T06:34:45.934Z,12.87
2022-12-14T06:37:13.767Z,13.03
2022-12-14T06:39:40.718Z,13.40
2022-12-14T06:42:08.049Z,13.00
2022-12-14T06:44:35.653Z,14.60
2022-12-14T06:47:02.714Z,14.27
2022-12-14T06:49:29.846Z,12.17
2022-12-14T06:51:56.827Z,13.57
2022-12-14T06:54:23.839Z,13.13
2022-12-14T06:56:50.974Z,15.57
2022-12-14T06:59:18.243Z,17.37
2022-12-14T07:01:49.648Z,11.97
2022-12-14T07:04:18.859Z,13.37
2022-12-14T07:06:46.777Z,13.17
2022-12-14T07:09:14.545Z,13.87
2022-12-14T07:11:42.738Z,12.50
2022-12-14T07:14:16.294Z,13.47
2022-12-14T07:16:47.781Z,15.03
2022-12-14T07:19:15.567Z,14.93
2022-12-14T07:21:42.732Z,13.03
2022-12-14T07:24:09.743Z,13.50
2022-12-14T07:26:37.590Z,14.97
2022-12-14T07:29:04.608Z,13.87
2022-12-14T07:31:31.615Z,12.87
2022-12-14T07:34:00.347Z,15.60
2022-12-14T07:36:29.314Z,15.87
2022-12-14T07:38:57.161Z,15.20
2022-12-14T07:41:26.961Z,15.33
2022-12-14T07:43:55.339Z,17.33
2022-12-14T07:46:27.200Z,14.67
2022-12-14T07:48:56.201Z,15.27
2022-12-14T07:51:26.372Z,14.27
2022-12-14T07:53:53.709Z,13.90
2022-12-14T07:56:26.429Z,16.37
2022-12-14T07:58:56.171Z,15.20
2022-12-14T08:01:24.353Z,16.00
2022-12-14T08:04:00.072Z,13.77
2022-12-14T08:06:28.987Z,14.37
2022-12-14T08:08:56.809Z,15.87
2022-12-14T08:11:24.642Z,15.50
2022-12-14T08:13:55.950Z,14.53
2022-12-14T08:16:23.767Z,15.07
2022-12-14T08:18:53.812Z,14.37
2022-12-14T08:21:22.288Z,14.37
2022-12-14T08:23:50.335Z,14.37
2022-12-14T08:26:17.665Z,15.73
2022-12-14T08:28:44.848Z,14.27
2022-12-14T08:31:14.789Z,14.93
2022-12-14T08:33:42.882Z,13.50
2022-12-14T08:36:30.637Z,13.57
2022-12-14T08:38:59.682Z,14.37
2022-12-14T08:41:27.822Z,13.47
2022-12-14T08:43:57.187Z,15.23
2022-12-14T08:46:25.573Z,14.10
2022-12-14T08:48:55.140Z,15.43
2022-12-14T08:51:23.395Z,17.07
2022-12-14T08:53:51.656Z,14.63
2022-12-14T08:56:21.974Z,14.80
2022-12-14T08:58:49.282Z,14.93
2022-12-14T09:01:19.719Z,15.97
2022-12-14T09:03:48.023Z,14.17
2022-12-14T09:06:18.632Z,15.80
2022-12-14T09:08:47.101Z,14.90
2022-12-14T09:11:19.387Z,15.30
2022-12-14T09:13:47.275Z,14.53
2022-12-14T09:16:17.299Z,15.20
2022-12-14T09:18:45.634Z,14.83
2022-12-14T09:21:13.046Z,15.30
2022-12-14T09:23:40.854Z,14.23
2022-12-14T09:26:13.692Z,16.33
2022-12-14T09:28:45.153Z,15.53
2022-12-14T09:31:14.784Z,15.97
2022-12-14T09:33:42.202Z,15.80
2022-12-14T09:36:21.066Z,14.90
2022-12-14T09:38:52.004Z,16.67
2022-12-14T09:41:34.970Z,15.73
2022-12-14T09:44:41.498Z,17.27
2022-12-14T09:47:19.258Z,14.83
2022-12-14T09:49:55.112Z,15.40
2022-12-14T09:52:35.540Z,15.87
2022-12-14T09:55:07.988Z,16.43
2022-12-14T09:57:41.695Z,17.53
2022-12-14T10:00:20.154Z,16.40
2022-12-14T10:03:28.484Z,15.60
2022-12-14T10:06:04.856Z,15.07
2022-12-14T10:08:37.768Z,16.80
2022-12-14T10:11:35.261Z,17.20
2022-12-14T10:14:02.245Z,16.77
2022-12-14T10:16:39.310Z,15.83
2022-12-14T10:19:27.987Z,17.57
2022-12-14T10:22:09.668Z,16.10
2022-12-14T10:24:50.814Z,15.67
2022-12-14T10:27:38.134Z,17.57
2022-12-14T10:30:18.851Z,17.73
2022-12-14T10:33:06.808Z,18.47
2022-12-14T10:35:42.171Z,17.50
2022-12-14T10:38:28.000Z,17.20
2022-12-14T10:41:15.556Z,17.93
2022-12-14T10:44:09.083Z,17.10
2022-12-14T10:46:54.601Z,18.00
2022-12-14T10:49:48.747Z,19.40
2022-12-14T10:52:22.882Z,18.03
2022-12-14T10:54:52.503Z,18.87
2022-12-14T10:57:29.449Z,20.17
2022-12-14T11:00:08.467Z,18.93
2022-12-14T11:02:42.291Z,19.43
2022-12-14T11:05:39.476Z,21.30
2022-12-14T11:08:07.875Z,21.03
2022-12-14T11:10:39.539Z,19.57
2022-12-14T11:13:20.774Z,20.20
2022-12-14T11:16:11.995Z,21.47
2022-12-14T11:18:38.987Z,21.43
2022-12-14T11:21:06.481Z,20.13
2022-12-14T11:23:40.681Z,21.50
2022-12-14T11:26:15.485Z,21.00
2022-12-14T11:28:50.097Z,20.87
2022-12-14T11:31:20.963Z,20.40
2022-12-14T11:33:54.460Z,21.10
2022-12-14T11:36:41.930Z,20.83
2022-12-14T11:39:15.290Z,21.80
2022-12-14T11:41:49.771Z,21.47
2022-12-14T11:44:16.655Z,21.27
2022-12-14T11:46:57.663Z,21.33
2022-12-14T11:49:27.792Z,21.73
2022-12-14T11:52:04.725Z,19.43
2022-12-14T11:54:37.967Z,22.50
2022-12-14T11:57:10.410Z,20.80
2022-12-14T11:59:52.564Z,21.93
2022-12-14T12:02:30.824Z,19.77
2022-12-14T12:05:07.959Z,21.40
2022-12-14T12:07:56.028Z,21.10
2022-12-14T12:10:28.464Z,19.07
2022-12-14T12:13:02.709Z,19.47
2022-12-14T12:15:35.619Z,20.93
2022-12-14T12:18:15.497Z,20.53
2022-12-14T12:21:02.176Z,20.87
2022-12-14T12:23:40.134Z,20.60
2022-12-14T12:26:22.684Z,20.50
2022-12-14T12:29:03.088Z,21.73
2022-12-14T12:31:40.990Z,19.97
2022-12-14T12:34:19.221Z,20.40
2022-12-14T12:37:24.192Z,19.23
2022-12-14T12:39:36.991Z,20.80
2022-12-14T12:42:32.359Z,22.03
2022-12-14T12:45:02.450Z,20.47
2022-12-14T12:47:46.529Z,20.00
2022-12-14T12:50:17.220Z,20.63
2022-12-14T12:53:04.019Z,19.10
2022-12-14T12:55:49.074Z,19.77
2022-12-14T12:58:37.419Z,20.47
2022-12-14T13:01:19.485Z,19.40
2022-12-14T13:03:51.568Z,21.23
2022-12-14T13:06:25.105Z,20.20
2022-12-14T13:08:58.998Z,19.53
2022-12-14T13:11:37.529Z,19.23
2022-12-14T13:14:29.027Z,20.07
2022-12-14T13:16:58.484Z,19.77
2022-12-14T13:19:52.339Z,19.67
2022-12-14T13:22:33.393Z,18.50
2022-12-14T13:25:11.123Z,18.73
2022-12-14T13:27:57.470Z,20.30
2022-12-14T13:30:46.191Z,23.77
2022-12-14T13:33:18.988Z,19.27
2022-12-14T13:36:16.691Z,18.60
2022-12-14T13:39:20.427Z,20.17
2022-12-14T13:42:08.286Z,20.03
2022-12-14T13:45:01.579Z,19.17
2022-12-14T13:47:41.130Z,19.83
2022-12-14T13:50:39.795Z,18.73
2022-12-14T13:53:12.273Z,20.83
2022-12-14T13:55:54.696Z,20.57
2022-12-14T13:58:30.899Z,20.23
2022-12-14T14:01:02.737Z,20.77
2022-12-14T14:03:36.181Z,19.87
2022-12-14T14:06:12.250Z,19.80
2022-12-14T14:08:44.646Z,20.40
2022-12-14T14:11:39.674Z,21.07
2022-12-14T14:14:12.854Z,22.63
2022-12-14T14:16:45.152Z,20.57
2022-12-14T14:19:12.223Z,18.83
2022-12-14T14:24:55.723Z,21.13
2022-12-14T14:27:25.800Z,21.50
2022-12-14T14:29:53.345Z,20.60
2022-12-14T14:32:41.232Z,21.23
2022-12-14T14:35:25.398Z,19.77
2022-12-14T14:38:22.470Z,22.70
2022-12-14T14:44:15.052Z,20.20
2022-12-14T14:46:46.022Z,21.73
2022-12-14T14:49:41.075Z,23.30
2022-12-14T14:52:43.282Z,20.53
2022-12-14T14:55:52.588Z,22.30
2022-12-14T14:58:36.975Z,21.10
2022-12-14T15:01:19.531Z,21.27
2022-12-14T15:03:49.323Z,21.63
2022-12-14T15:06:21.380Z,20.37
2022-12-14T15:09:09.469Z,20.27
2022-12-14T15:11:52.290Z,19.43
2022-12-14T15:14:43.246Z,20.67
2022-12-14T15:17:19.712Z,22.10
2022-12-14T15:19:50.704Z,22.67
2022-12-14T15:22:20.474Z,20.40
2022-12-14T15:24:51.446Z,21.80
2022-12-14T15:27:34.967Z,20.93
2022-12-14T15:30:07.454Z,20.53
2022-12-14T15:32:34.695Z,22.20
2022-12-14T15:35:08.905Z,19.30
2022-12-14T15:37:36.584Z,20.60
2022-12-14T15:40:22.490Z,20.47
2022-12-14T15:43:01.517Z,19.90
2022-12-14T15:45:32.075Z,22.00
2022-12-14T15:48:31.032Z,20.83
2022-12-14T15:51:03.222Z,20.87
2022-12-14T15:53:35.560Z,20.70
2022-12-14T15:56:20.833Z,22.63
2022-12-14T15:58:48.531Z,21.30
2022-12-14T16:01:24.322Z,22.87
2022-12-14T16:03:54.984Z,21.03
2022-12-14T16:06:24.673Z,22.93
2022-12-14T16:09:08.012Z,24.03
2022-12-14T16:11:37.440Z,22.70
2022-12-14T16:14:33.297Z,24.00
2022-12-14T16:17:01.051Z,21.37
2022-12-14T16:19:44.968Z,22.10
2022-12-14T16:22:25.253Z,22.20
2022-12-14T16:38:55.239Z,24.30
2022-12-14T16:41:36.190Z,23.10
2022-12-14T16:44:24.858Z,22.17
2022-12-14T16:47:00.988Z,21.83
2022-12-14T16:49:41.134Z,22.63
2022-12-14T16:52:38.188Z,30.97
2022-12-14T16:55:19.102Z,24.40
2022-12-14T16:57:49.089Z,23.17
2022-12-14T17:00:29.659Z,22.77
2022-12-14T17:03:16.791Z,24.47
2022-12-14T17:05:55.279Z,25.93
2022-12-14T17:08:22.259Z,34.33
2022-12-14T17:10:49.380Z,27.47
2022-12-14T17:13:16.486Z,28.10
2022-12-14T17:16:14.645Z,24.97
2022-12-14T17:18:42.464Z,23.83
2022-12-14T17:21:20.629Z,24.97
2022-12-14T17:23:47.968Z,24.97
2022-12-14T17:26:23.976Z,24.27
2022-12-14T17:28:51.256Z,24.10
2022-12-14T17:31:21.321Z,25.10
2022-12-14T17:33:48.855Z,24.80
2022-12-14T17:36:15.958Z,23.30
2022-12-14T17:38:46.187Z,27.00
2022-12-14T17:41:25.707Z,24.67
2022-12-14T17:43:57.170Z,25.47
2022-12-14T17:46:25.765Z,24.17
2022-12-14T17:48:53.465Z,24.80
2022-12-14T17:51:26.575Z,25.40
2022-12-14T17:53:54.830Z,25.27
2022-12-14T17:56:22.297Z,23.87
2022-12-14T17:58:50.157Z,26.20
2022-12-14T18:01:19.685Z,22.40
2022-12-14T18:03:47.059Z,22.67
2022-12-14T18:06:16.421Z,25.23
2022-12-14T18:08:44.894Z,23.00
2022-12-14T18:11:21.214Z,24.83
2022-12-14T18:13:49.100Z,22.87
2022-12-14T18:16:19.406Z,23.20
2022-12-14T18:18:46.632Z,23.83
2022-12-14T18:21:19.885Z,22.87
2022-12-14T18:23:47.178Z,23.27
2022-12-14T18:26:21.025Z,23.00
2022-12-14T18:28:53.779Z,21.70
2022-12-14T18:31:32.049Z,20.70
2022-12-14T18:33:59.123Z,20.73
2022-12-14T18:36:26.321Z,19.10
2022-12-14T18:38:53.502Z,20.30
2022-12-14T18:41:23.188Z,18.07
2022-12-14T18:43:50.511Z,20.50
2022-12-14T18:46:18.314Z,18.97
2022-12-14T18:48:45.286Z,19.33
2022-12-14T18:51:23.450Z,19.37
2022-12-14T18:53:51.601Z,19.57
2022-12-14T18:56:18.835Z,22.83
2022-12-14T18:58:46.558Z,19.73
2022-12-14T19:01:16.114Z,19.77
2022-12-14T19:03:43.920Z,18.53
2022-12-14T19:09:09.751Z,18.87
2022-12-14T19:11:46.648Z,18.93
2022-12-14T19:14:13.691Z,18.03
2022-12-14T19:16:40.897Z,20.67
2022-12-14T19:19:07.997Z,20.40
2022-12-14T19:21:35.111Z,18.10
2022-12-14T19:24:02.227Z,17.97
2022-12-14T19:26:30.781Z,19.40
2022-12-14T19:28:57.960Z,19.07
2022-12-14T19:31:25.176Z,18.17
2022-12-14T19:33:54.082Z,19.60
2022-12-14T19:36:21.064Z,18.70
2022-12-14T19:38:49.051Z,19.10
2022-12-14T19:41:20.411Z,19.30
2022-12-14T19:43:48.051Z,19.23
2022-12-14T19:46:16.494Z,21.00
2022-12-14T19:48:44.093Z,20.03
2022-12-14T19:51:12.973Z,19.07
2022-12-14T19:53:42.880Z,35.17
2022-12-14T19:56:14.241Z,21.40
2022-12-14T19:58:41.279Z,20.97
2022-12-14T20:01:13.244Z,18.77
2022-12-14T20:03:40.734Z,21.57
2022-12-14T20:06:08.645Z,20.53
2022-12-14T20:08:36.413Z,20.10
2022-12-14T20:11:08.752Z,20.97
2022-12-14T20:13:35.951Z,20.93
2022-12-14T20:16:03.194Z,19.53
2022-12-14T20:18:31.327Z,21.30
2022-12-14T20:21:04.069Z,21.30
2022-12-14T20:23:32.718Z,20.27
2022-12-14T20:26:01.479Z,21.63
2022-12-14T20:28:28.466Z,20.87
2022-12-14T20:30:55.534Z,21.53
2022-12-14T20:33:28.079Z,19.93
2022-12-14T20:35:57.168Z,21.77
2022-12-14T20:38:24.154Z,22.90
2022-12-14T20:40:52.304Z,22.20
2022-12-14T20:43:19.439Z,21.53
2022-12-14T20:45:46.774Z,21.60
2022-12-14T20:48:14.008Z,21.53
2022-12-14T20:50:43.460Z,21.10
2022-12-14T20:53:10.448Z,21.93
2022-12-14T20:55:37.521Z,22.43
2022-12-14T20:58:04.498Z,22.40
2022-12-14T21:00:31.872Z,21.77
2022-12-14T21:02:58.930Z,21.40
2022-12-14T21:05:26.190Z,21.27
2022-12-14T21:07:53.191Z,22.47
2022-12-14T21:10:20.147Z,21.07
2022-12-14T21:12:50.234Z,22.30
2022-12-14T21:15:17.291Z,22.03
2022-12-14T21:17:44.327Z,21.97
2022-12-14T21:20:13.304Z,22.40
2022-12-14T21:22:41.369Z,22.00
2022-12-14T21:25:08.603Z,22.67
2022-12-14T21:27:38.764Z,22.63
2022-12-14T21:30:11.177Z,22.57
2022-12-14T21:32:38.703Z,23.73
2022-12-14T21:35:06.192Z,22.50
2022-12-14T21:37:33.240Z,26.03
2022-12-14T21:40:03.220Z,39.13
2022-12-14T21:42:30.285Z,23.77
2022-12-14T21:44:57.838Z,23.80
2022-12-14T21:47:27.499Z,23.83
2022-12-14T21:49:55.043Z,23.37
2022-12-14T21:52:24.534Z,25.33
2022-12-14T21:54:51.789Z,23.83
2022-12-14T21:57:40.395Z,23.77
2022-12-14T22:00:10.048Z,24.53
2022-12-14T22:02:37.241Z,24.27
2022-12-14T22:05:04.703Z,22.97
2022-12-14T22:07:33.819Z,22.00
2022-12-14T22:10:01.424Z,23.40
2022-12-14T22:12:29.552Z,22.87
2022-12-14T22:14:56.522Z,22.50
2022-12-14T22:17:23.838Z,22.37
2022-12-14T22:19:52.201Z,22.50
2022-12-14T22:22:19.375Z,24.10
2022-12-14T22:24:49.599Z,23.33
2022-12-14T22:27:17.162Z,24.00
2022-12-14T22:29:44.112Z,24.30
2022-12-14T22:32:14.984Z,24.33
2022-12-14T22:34:42.097Z,25.27
2022-12-14T22:37:09.465Z,24.43
2022-12-14T22:39:36.533Z,24.47
2022-12-14T22:42:03.632Z,22.97
2022-12-14T22:44:31.661Z,24.70
2022-12-14T22:46:58.649Z,26.90
2022-12-14T22:49:25.607Z,23.57
2022-12-14T22:51:52.616Z,23.03
2022-12-14T22:54:27.824Z,23.40
2022-12-14T22:57:06.295Z,22.93
2022-12-14T22:59:38.664Z,24.93
2022-12-14T23:02:06.271Z,24.07
2022-12-14T23:04:33.681Z,25.43
2022-12-14T23:07:00.684Z,22.13
2022-12-14T23:09:46.411Z,24.23
2022-12-14T23:12:32.261Z,24.23
2022-12-14T23:15:18.757Z,23.03
2022-12-14T23:18:05.512Z,24.13
2022-12-14T23:20:51.334Z,23.83
2022-12-14T23:23:36.863Z,23.00
2022-12-14T23:26:25.671Z,25.63
2022-12-14T23:29:11.704Z,24.00
2022-12-14T23:31:57.439Z,24.40
2022-12-14T23:34:48.821Z,24.33
2022-12-14T23:37:38.950Z,24.30
2022-12-14T23:40:29.958Z,23.43
2022-12-14T23:43:15.593Z,23.73
2022-12-14T23:46:06.997Z,23.73
2022-12-14T23:48:56.578Z,23.23
2022-12-14T23:51:42.336Z,22.67
2022-12-14T23:54:27.957Z,22.53
2022-12-14T23:57:13.602Z,24.20
2022-12-14T23:59:59.122Z,23.37
